sensor_id;sensor_type;location;lat;lon;timestamp;pressure;altitude;pressure_sealevel;temperature;humidity
37904;BME280;23738;50.422;18.758;2023-03-31T00:01:38;97724.61;;;9.49;79.83
37904;BME280;23738;50.422;18.758;2023-03-31T00:04:09;97720.53;;;9.45;79.69
37904;BME280;23738;50.422;18.758;2023-03-31T00:06:43;97725.27;;;9.45;79.71
37904;BME280;23738;50.422;18.758;2023-03-31T00:09:13;97722.79;;;9.46;79.80
37904;BME280;23738;50.422;18.758;2023-03-31T00:11:46;97725.45;;;9.50;79.95
37904;BME280;23738;50.422;18.758;2023-03-31T00:14:15;97722.19;;;9.52;79.62
37904;BME280;23738;50.422;18.758;2023-03-31T00:16:46;97722.42;;;9.54;79.83
37904;BME280;23738;50.422;18.758;2023-03-31T00:19:15;97721.66;;;9.52;79.60
37904;BME280;23738;50.422;18.758;2023-03-31T00:21:47;97719.91;;;9.48;79.58
37904;BME280;23738;50.422;18.758;2023-03-31T00:24:18;97722.05;;;9.46;79.56
37904;BME280;23738;50.422;18.758;2023-03-31T00:26:48;97718.83;;;9.47;79.59
37904;BME280;23738;50.422;18.758;2023-03-31T00:29:17;97718.73;;;9.47;79.58
37904;BME280;23738;50.422;18.758;2023-03-31T00:31:46;97720.03;;;9.47;79.45
37904;BME280;23738;50.422;18.758;2023-03-31T00:34:16;97719.59;;;9.44;79.59
37904;BME280;23738;50.422;18.758;2023-03-31T00:36:45;97712.44;;;9.41;79.59
37904;BME280;23738;50.422;18.758;2023-03-31T00:39:17;97715.61;;;9.41;79.63
37904;BME280;23738;50.422;18.758;2023-03-31T00:41:46;97713.60;;;9.38;79.69
37904;BME280;23738;50.422;18.758;2023-03-31T00:44:18;97712.98;;;9.36;79.51
37904;BME280;23738;50.422;18.758;2023-03-31T00:46:53;97712.07;;;9.35;79.59
37904;BME280;23738;50.422;18.758;2023-03-31T00:49:27;97711.85;;;9.36;79.70
37904;BME280;23738;50.422;18.758;2023-03-31T00:52:01;97709.73;;;9.38;79.68
37904;BME280;23738;50.422;18.758;2023-03-31T00:54:33;97715.25;;;9.34;79.68
37904;BME280;23738;50.422;18.758;2023-03-31T00:57:05;97714.73;;;9.31;79.69
37904;BME280;23738;50.422;18.758;2023-03-31T00:59:39;97711.20;;;9.31;79.70
37904;BME280;23738;50.422;18.758;2023-03-31T01:02:09;97706.21;;;9.30;79.67
37904;BME280;23738;50.422;18.758;2023-03-31T01:04:44;97712.41;;;9.32;79.55
37904;BME280;23738;50.422;18.758;2023-03-31T01:07:19;97706.92;;;9.35;79.73
37904;BME280;23738;50.422;18.758;2023-03-31T01:09:56;97703.55;;;9.37;79.63
37904;BME280;23738;50.422;18.758;2023-03-31T01:12:27;97698.49;;;9.34;79.49
37904;BME280;23738;50.422;18.758;2023-03-31T01:14:57;97698.95;;;9.29;79.40
37904;BME280;23738;50.422;18.758;2023-03-31T01:17:27;97697.73;;;9.26;79.53
37904;BME280;23738;50.422;18.758;2023-03-31T01:20:07;97696.29;;;9.22;79.42
37904;BME280;23738;50.422;18.758;2023-03-31T01:23:25;97693.16;;;9.20;79.29
37904;BME280;23738;50.422;18.758;2023-03-31T01:32:20;97693.48;;;9.08;79.05
37904;BME280;23738;50.422;18.758;2023-03-31T01:35:08;97689.74;;;8.99;79.05
37904;BME280;23738;50.422;18.758;2023-03-31T01:38:09;97690.06;;;8.92;79.06
37904;BME280;23738;50.422;18.758;2023-03-31T01:40:55;97694.35;;;8.88;79.05
37904;BME280;23738;50.422;18.758;2023-03-31T01:43:34;97698.99;;;8.86;79.00
37904;BME280;23738;50.422;18.758;2023-03-31T01:46:12;97697.56;;;8.88;79.22
37904;BME280;23738;50.422;18.758;2023-03-31T01:48:55;97696.06;;;8.88;79.17
37904;BME280;23738;50.422;18.758;2023-03-31T01:51:33;97691.79;;;8.86;79.11
37904;BME280;23738;50.422;18.758;2023-03-31T01:54:04;97691.85;;;8.81;79.16
37904;BME280;23738;50.422;18.758;2023-03-31T01:56:40;97694.84;;;8.81;79.15
37904;BME280;23738;50.422;18.758;2023-03-31T01:59:15;97693.91;;;8.82;79.10
37904;BME280;23738;50.422;18.758;2023-03-31T02:01:50;97691.39;;;8.82;79.28
37904;BME280;23738;50.422;18.758;2023-03-31T02:04:25;97694.30;;;8.85;79.29
37904;BME280;23738;50.422;18.758;2023-03-31T02:06:59;97692.61;;;8.83;79.26
37904;BME280;23738;50.422;18.758;2023-03-31T02:09:34;97693.18;;;8.80;79.42
37904;BME280;23738;50.422;18.758;2023-03-31T02:12:08;97693.33;;;8.77;79.29
37904;BME280;23738;50.422;18.758;2023-03-31T02:14:42;97693.70;;;8.75;79.32
37904;BME280;23738;50.422;18.758;2023-03-31T02:17:16;97688.62;;;8.75;79.30
37904;BME280;23738;50.422;18.758;2023-03-31T02:19:49;97693.46;;;8.78;79.31
37904;BME280;23738;50.422;18.758;2023-03-31T02:22:21;97687.77;;;8.79;79.46
37904;BME280;23738;50.422;18.758;2023-03-31T02:24:53;97692.33;;;8.81;79.43
37904;BME280;23738;50.422;18.758;2023-03-31T02:27:25;97686.04;;;8.81;79.45
37904;BME280;23738;50.422;18.758;2023-03-31T02:29:56;97683.98;;;8.76;79.46
37904;BME280;23738;50.422;18.758;2023-03-31T02:32:30;97683.08;;;8.73;79.48
37904;BME280;23738;50.422;18.758;2023-03-31T02:35:01;97685.63;;;8.75;79.35
37904;BME280;23738;50.422;18.758;2023-03-31T02:37:31;97686.38;;;8.78;79.42
37904;BME280;23738;50.422;18.758;2023-03-31T02:40:04;97685.77;;;8.78;79.45
37904;BME280;23738;50.422;18.758;2023-03-31T02:42:37;97687.55;;;8.79;79.47
37904;BME280;23738;50.422;18.758;2023-03-31T02:45:39;97684.55;;;8.79;79.50
37904;BME280;23738;50.422;18.758;2023-03-31T02:48:11;97679.47;;;8.74;79.36
37904;BME280;23738;50.422;18.758;2023-03-31T02:50:56;97676.30;;;8.74;79.34
37904;BME280;23738;50.422;18.758;2023-03-31T02:53:33;97676.19;;;8.74;79.22
37904;BME280;23738;50.422;18.758;2023-03-31T02:56:20;97673.35;;;8.74;79.16
37904;BME280;23738;50.422;18.758;2023-03-31T02:59:08;97666.96;;;8.69;79.24
37904;BME280;23738;50.422;18.758;2023-03-31T03:01:51;97669.23;;;8.71;79.27
37904;BME280;23738;50.422;18.758;2023-03-31T03:04:40;97673.73;;;8.67;79.22
37904;BME280;23738;50.422;18.758;2023-03-31T03:07:22;97675.73;;;8.63;79.21
37904;BME280;23738;50.422;18.758;2023-03-31T03:09:59;97673.89;;;8.60;79.17
37904;BME280;23738;50.422;18.758;2023-03-31T03:12:35;97673.00;;;8.60;79.20
37904;BME280;23738;50.422;18.758;2023-03-31T03:15:11;97667.44;;;8.62;79.19
37904;BME280;23738;50.422;18.758;2023-03-31T03:17:43;97669.41;;;8.63;79.22
37904;BME280;23738;50.422;18.758;2023-03-31T03:20:14;97666.17;;;8.64;79.19
37904;BME280;23738;50.422;18.758;2023-03-31T03:22:44;97663.80;;;8.62;79.05
37904;BME280;23738;50.422;18.758;2023-03-31T03:25:14;97661.90;;;8.58;79.11
37904;BME280;23738;50.422;18.758;2023-03-31T03:27:45;97659.88;;;8.56;78.96
37904;BME280;23738;50.422;18.758;2023-03-31T03:30:15;97661.83;;;8.56;79.02
37904;BME280;23738;50.422;18.758;2023-03-31T03:32:44;97658.80;;;8.56;79.00
37904;BME280;23738;50.422;18.758;2023-03-31T03:35:14;97659.92;;;8.57;79.07
37904;BME280;23738;50.422;18.758;2023-03-31T03:37:43;97660.36;;;8.56;78.93
37904;BME280;23738;50.422;18.758;2023-03-31T03:40:13;97655.03;;;8.54;78.97
37904;BME280;23738;50.422;18.758;2023-03-31T03:42:43;97651.77;;;8.51;78.89
37904;BME280;23738;50.422;18.758;2023-03-31T03:45:12;97648.29;;;8.47;78.83
37904;BME280;23738;50.422;18.758;2023-03-31T03:47:42;97650.09;;;8.44;78.73
37904;BME280;23738;50.422;18.758;2023-03-31T03:50:12;97654.90;;;8.42;78.61
37904;BME280;23738;50.422;18.758;2023-03-31T03:52:42;97651.30;;;8.41;78.76
37904;BME280;23738;50.422;18.758;2023-03-31T03:55:12;97647.17;;;8.42;78.92
37904;BME280;23738;50.422;18.758;2023-03-31T03:57:42;97640.50;;;8.38;78.70
37904;BME280;23738;50.422;18.758;2023-03-31T04:00:13;97637.27;;;8.35;78.81
37904;BME280;23738;50.422;18.758;2023-03-31T04:02:42;97637.70;;;8.31;78.76
37904;BME280;23738;50.422;18.758;2023-03-31T04:05:12;97638.11;;;8.29;78.55
37904;BME280;23738;50.422;18.758;2023-03-31T04:07:41;97638.03;;;8.26;78.85
37904;BME280;23738;50.422;18.758;2023-03-31T04:10:11;97636.17;;;8.28;78.90
37904;BME280;23738;50.422;18.758;2023-03-31T04:12:40;97633.90;;;8.27;78.86
37904;BME280;23738;50.422;18.758;2023-03-31T04:15:11;97631.36;;;8.21;78.76
37904;BME280;23738;50.422;18.758;2023-03-31T04:17:40;97630.35;;;8.17;78.82
37904;BME280;23738;50.422;18.758;2023-03-31T04:20:15;97629.36;;;8.12;78.78
37904;BME280;23738;50.422;18.758;2023-03-31T04:22:45;97626.91;;;8.04;78.78
37904;BME280;23738;50.422;18.758;2023-03-31T04:25:18;97625.14;;;7.97;78.77
37904;BME280;23738;50.422;18.758;2023-03-31T04:27:50;97619.59;;;7.92;78.78
37904;BME280;23738;50.422;18.758;2023-03-31T04:30:25;97615.80;;;7.89;78.90
37904;BME280;23738;50.422;18.758;2023-03-31T04:32:58;97611.19;;;7.86;78.90
37904;BME280;23738;50.422;18.758;2023-03-31T04:35:29;97616.50;;;7.86;78.79
37904;BME280;23738;50.422;18.758;2023-03-31T04:38:09;97617.34;;;7.85;78.88
37904;BME280;23738;50.422;18.758;2023-03-31T04:40:38;97617.71;;;7.79;78.67
37904;BME280;23738;50.422;18.758;2023-03-31T04:43:08;97623.98;;;7.71;78.62
37904;BME280;23738;50.422;18.758;2023-03-31T04:45:37;97615.14;;;7.64;78.75
37904;BME280;23738;50.422;18.758;2023-03-31T04:48:09;97616.75;;;7.62;78.75
37904;BME280;23738;50.422;18.758;2023-03-31T04:50:39;97614.83;;;7.59;78.58
37904;BME280;23738;50.422;18.758;2023-03-31T04:53:08;97614.29;;;7.54;78.69
37904;BME280;23738;50.422;18.758;2023-03-31T04:55:38;97612.46;;;7.54;78.75
37904;BME280;23738;50.422;18.758;2023-03-31T04:58:07;97610.96;;;7.51;78.67
37904;BME280;23738;50.422;18.758;2023-03-31T05:00:37;97610.40;;;7.48;78.68
37904;BME280;23738;50.422;18.758;2023-03-31T05:03:06;97606.63;;;7.44;78.86
37904;BME280;23738;50.422;18.758;2023-03-31T05:05:36;97603.44;;;7.43;78.84
37904;BME280;23738;50.422;18.758;2023-03-31T05:08:06;97597.90;;;7.45;78.83
37904;BME280;23738;50.422;18.758;2023-03-31T05:10:35;97594.84;;;7.47;78.98
37904;BME280;23738;50.422;18.758;2023-03-31T05:13:04;97595.77;;;7.51;79.03
37904;BME280;23738;50.422;18.758;2023-03-31T05:15:35;97594.95;;;7.53;79.37
37904;BME280;23738;50.422;18.758;2023-03-31T05:18:05;97590.11;;;7.55;79.21
37904;BME280;23738;50.422;18.758;2023-03-31T05:20:34;97588.89;;;7.60;79.14
37904;BME280;23738;50.422;18.758;2023-03-31T05:23:03;97591.39;;;7.66;79.28
37904;BME280;23738;50.422;18.758;2023-03-31T05:25:34;97593.73;;;7.73;79.33
37904;BME280;23738;50.422;18.758;2023-03-31T05:28:04;97586.20;;;7.78;79.53
37904;BME280;23738;50.422;18.758;2023-03-31T05:30:34;97591.94;;;7.90;79.46
37904;BME280;23738;50.422;18.758;2023-03-31T05:33:06;97585.52;;;7.97;79.73
37904;BME280;23738;50.422;18.758;2023-03-31T05:35:35;97584.83;;;8.04;79.67
37904;BME280;23738;50.422;18.758;2023-03-31T05:38:04;97584.31;;;8.11;79.81
37904;BME280;23738;50.422;18.758;2023-03-31T05:40:34;97581.90;;;8.23;79.80
37904;BME280;23738;50.422;18.758;2023-03-31T05:43:04;97575.24;;;8.32;79.69
37904;BME280;23738;50.422;18.758;2023-03-31T05:45:33;97580.23;;;8.43;79.71
37904;BME280;23738;50.422;18.758;2023-03-31T05:48:02;97578.83;;;8.52;79.84
37904;BME280;23738;50.422;18.758;2023-03-31T05:50:32;97576.17;;;8.62;79.90
37904;BME280;23738;50.422;18.758;2023-03-31T05:53:01;97580.31;;;8.72;80.01
37904;BME280;23738;50.422;18.758;2023-03-31T05:55:30;97577.36;;;8.79;80.03
37904;BME280;23738;50.422;18.758;2023-03-31T05:58:01;97577.92;;;8.89;79.94
37904;BME280;23738;50.422;18.758;2023-03-31T06:00:30;97575.61;;;8.99;79.95
37904;BME280;23738;50.422;18.758;2023-03-31T06:02:59;97578.39;;;9.09;80.02
37904;BME280;23738;50.422;18.758;2023-03-31T06:05:28;97573.34;;;9.24;80.08
37904;BME280;23738;50.422;18.758;2023-03-31T06:07:59;97566.97;;;9.32;79.97
37904;BME280;23738;50.422;18.758;2023-03-31T06:10:28;97570.22;;;9.41;79.99
37904;BME280;23738;50.422;18.758;2023-03-31T06:12:57;97563.55;;;9.52;80.06
37904;BME280;23738;50.422;18.758;2023-03-31T06:15:27;97567.15;;;9.68;80.37
37904;BME280;23738;50.422;18.758;2023-03-31T06:17:56;97572.41;;;9.86;80.18
37904;BME280;23738;50.422;18.758;2023-03-31T06:20:25;97572.64;;;10.04;80.19
37904;BME280;23738;50.422;18.758;2023-03-31T06:22:55;97568.67;;;10.17;80.25
37904;BME280;23738;50.422;18.758;2023-03-31T06:25:24;97562.90;;;10.16;79.94
37904;BME280;23738;50.422;18.758;2023-03-31T06:27:53;97564.25;;;10.06;79.58
37904;BME280;23738;50.422;18.758;2023-03-31T06:30:22;97562.84;;;10.05;79.71
37904;BME280;23738;50.422;18.758;2023-03-31T06:32:52;97554.65;;;10.05;79.68
37904;BME280;23738;50.422;18.758;2023-03-31T06:35:22;97555.95;;;10.07;79.61
37904;BME280;23738;50.422;18.758;2023-03-31T06:37:51;97552.98;;;10.10;79.66
37904;BME280;23738;50.422;18.758;2023-03-31T06:40:21;97543.63;;;10.14;79.61
37904;BME280;23738;50.422;18.758;2023-03-31T06:42:50;97547.88;;;10.21;79.59
37904;BME280;23738;50.422;18.758;2023-03-31T06:45:20;97544.45;;;10.30;79.35
37904;BME280;23738;50.422;18.758;2023-03-31T06:47:49;97543.45;;;10.39;79.31
37904;BME280;23738;50.422;18.758;2023-03-31T06:50:19;97539.81;;;10.54;79.37
37904;BME280;23738;50.422;18.758;2023-03-31T06:52:48;97540.93;;;10.74;79.81
37904;BME280;23738;50.422;18.758;2023-03-31T06:55:19;97537.85;;;10.96;79.20
37904;BME280;23738;50.422;18.758;2023-03-31T06:57:49;97538.48;;;11.10;79.19
37904;BME280;23738;50.422;18.758;2023-03-31T07:00:20;97533.29;;;11.24;78.87
37904;BME280;23738;50.422;18.758;2023-03-31T07:02:51;97528.37;;;11.35;78.80
37904;BME280;23738;50.422;18.758;2023-03-31T07:05:22;97534.52;;;11.54;78.82
37904;BME280;23738;50.422;18.758;2023-03-31T07:07:54;97532.64;;;11.75;78.86
37904;BME280;23738;50.422;18.758;2023-03-31T07:10:26;97532.30;;;11.90;78.65
37904;BME280;23738;50.422;18.758;2023-03-31T07:12:55;97534.33;;;12.01;78.46
37904;BME280;23738;50.422;18.758;2023-03-31T07:15:25;97535.18;;;12.06;78.33
37904;BME280;23738;50.422;18.758;2023-03-31T07:17:57;97538.58;;;12.04;78.19
37904;BME280;23738;50.422;18.758;2023-03-31T07:20:29;97539.91;;;12.04;77.74
37904;BME280;23738;50.422;18.758;2023-03-31T07:23:02;97537.44;;;12.05;77.37
37904;BME280;23738;50.422;18.758;2023-03-31T07:25:31;97533.38;;;12.21;77.75
37904;BME280;23738;50.422;18.758;2023-03-31T07:28:01;97530.67;;;12.45;77.50
37904;BME280;23738;50.422;18.758;2023-03-31T07:30:31;97532.98;;;12.72;77.79
37904;BME280;23738;50.422;18.758;2023-03-31T07:33:01;97528.53;;;12.91;77.08
37904;BME280;23738;50.422;18.758;2023-03-31T07:35:31;97527.75;;;13.01;76.72
37904;BME280;23738;50.422;18.758;2023-03-31T07:38:00;97518.75;;;13.09;76.53
37904;BME280;23738;50.422;18.758;2023-03-31T07:40:29;97518.11;;;13.30;76.99
37904;BME280;23738;50.422;18.758;2023-03-31T07:42:59;97516.87;;;13.55;76.54
37904;BME280;23738;50.422;18.758;2023-03-31T07:45:29;97517.27;;;13.78;76.41
37904;BME280;23738;50.422;18.758;2023-03-31T07:47:59;97513.08;;;13.94;76.06
37904;BME280;23738;50.422;18.758;2023-03-31T07:50:28;97513.60;;;13.99;75.80
37904;BME280;23738;50.422;18.758;2023-03-31T07:52:58;97508.63;;;14.02;75.59
37904;BME280;23738;50.422;18.758;2023-03-31T07:55:27;97507.31;;;14.00;75.74
37904;BME280;23738;50.422;18.758;2023-03-31T07:57:56;97508.20;;;14.04;74.66
37904;BME280;23738;50.422;18.758;2023-03-31T08:00:26;97500.99;;;13.96;74.83
37904;BME280;23738;50.422;18.758;2023-03-31T08:02:56;97498.55;;;13.92;74.94
37904;BME280;23738;50.422;18.758;2023-03-31T08:05:25;97493.52;;;13.90;74.65
37904;BME280;23738;50.422;18.758;2023-03-31T08:07:55;97486.64;;;13.83;74.06
37904;BME280;23738;50.422;18.758;2023-03-31T08:10:26;97486.94;;;13.82;74.13
37904;BME280;23738;50.422;18.758;2023-03-31T08:12:55;97483.05;;;13.84;74.39
37904;BME280;23738;50.422;18.758;2023-03-31T08:15:25;97476.50;;;13.87;73.54
37904;BME280;23738;50.422;18.758;2023-03-31T08:17:54;97471.01;;;13.81;72.79
37904;BME280;23738;50.422;18.758;2023-03-31T08:20:24;97463.54;;;13.77;73.52
37904;BME280;23738;50.422;18.758;2023-03-31T08:22:53;97454.03;;;13.82;73.56
37904;BME280;23738;50.422;18.758;2023-03-31T08:25:23;97456.63;;;13.93;73.70
37904;BME280;23738;50.422;18.758;2023-03-31T08:27:53;97451.81;;;14.13;73.54
37904;BME280;23738;50.422;18.758;2023-03-31T08:30:23;97446.20;;;14.41;73.65
37904;BME280;23738;50.422;18.758;2023-03-31T08:32:53;97440.85;;;14.69;72.97
37904;BME280;23738;50.422;18.758;2023-03-31T08:35:22;97440.75;;;14.87;72.22
37904;BME280;23738;50.422;18.758;2023-03-31T08:37:52;97433.70;;;14.89;71.93
37904;BME280;23738;50.422;18.758;2023-03-31T19:43:27;96721.12;;;8.33;77.29
37904;BME280;23738;50.422;18.758;2023-03-31T19:45:57;96721.13;;;8.53;76.60
37904;BME280;23738;50.422;18.758;2023-03-31T19:48:28;96718.55;;;8.56;76.46
37904;BME280;23738;50.422;18.758;2023-03-31T19:51:01;96719.10;;;8.58;76.19
37904;BME280;23738;50.422;18.758;2023-03-31T19:53:32;96722.21;;;8.58;75.95
37904;BME280;23738;50.422;18.758;2023-03-31T19:56:04;96720.44;;;8.60;76.03
37904;BME280;23738;50.422;18.758;2023-03-31T19:58:35;96714.67;;;8.56;75.77
37904;BME280;23738;50.422;18.758;2023-03-31T20:01:07;96721.81;;;8.61;75.70
37904;BME280;23738;50.422;18.758;2023-03-31T20:03:37;96725.89;;;8.59;75.83
37904;BME280;23738;50.422;18.758;2023-03-31T20:06:07;96727.64;;;8.56;75.73
37904;BME280;23738;50.422;18.758;2023-03-31T20:08:39;96733.11;;;8.51;75.64
37904;BME280;23738;50.422;18.758;2023-03-31T20:11:10;96737.11;;;8.46;75.47
37904;BME280;23738;50.422;18.758;2023-03-31T20:13:41;96741.54;;;8.43;75.46
37904;BME280;23738;50.422;18.758;2023-03-31T20:16:12;96734.84;;;8.42;75.46
37904;BME280;23738;50.422;18.758;2023-03-31T20:18:42;96737.71;;;8.42;75.38
37904;BME280;23738;50.422;18.758;2023-03-31T20:21:16;96734.36;;;8.37;75.35
37904;BME280;23738;50.422;18.758;2023-03-31T20:23:46;96743.89;;;8.34;75.31
37904;BME280;23738;50.422;18.758;2023-03-31T20:26:17;96743.95;;;8.26;75.37
37904;BME280;23738;50.422;18.758;2023-03-31T20:28:48;96749.74;;;8.20;75.21
37904;BME280;23738;50.422;18.758;2023-03-31T20:31:20;96750.95;;;8.11;75.13
37904;BME280;23738;50.422;18.758;2023-03-31T20:33:51;96750.48;;;8.07;75.29
37904;BME280;23738;50.422;18.758;2023-03-31T20:36:23;96744.84;;;8.04;75.00
37904;BME280;23738;50.422;18.758;2023-03-31T20:38:53;96743.17;;;8.01;75.05
37904;BME280;23738;50.422;18.758;2023-03-31T20:41:24;96747.23;;;7.96;75.08
37904;BME280;23738;50.422;18.758;2023-03-31T20:43:55;96754.92;;;7.89;75.11
37904;BME280;23738;50.422;18.758;2023-03-31T20:46:24;96760.84;;;7.84;75.26
37904;BME280;23738;50.422;18.758;2023-03-31T20:48:55;96767.63;;;7.79;75.25
37904;BME280;23738;50.422;18.758;2023-03-31T20:51:27;96769.98;;;7.77;75.42
37904;BME280;23738;50.422;18.758;2023-03-31T20:53:58;96778.08;;;7.76;75.46
37904;BME280;23738;50.422;18.758;2023-03-31T20:56:29;96771.20;;;7.80;75.82
37904;BME280;23738;50.422;18.758;2023-03-31T20:59:00;96768.67;;;7.84;75.79
37904;BME280;23738;50.422;18.758;2023-03-31T21:01:32;96773.23;;;7.87;75.87
37904;BME280;23738;50.422;18.758;2023-03-31T21:04:03;96772.93;;;7.89;76.09
37904;BME280;23738;50.422;18.758;2023-03-31T21:06:37;96777.20;;;7.90;76.11
37904;BME280;23738;50.422;18.758;2023-03-31T21:09:08;96775.85;;;7.85;76.10
37904;BME280;23738;50.422;18.758;2023-03-31T21:11:38;96776.26;;;7.82;76.27
37904;BME280;23738;50.422;18.758;2023-03-31T21:14:08;96780.82;;;7.81;76.28
37904;BME280;23738;50.422;18.758;2023-03-31T21:16:39;96777.52;;;7.80;76.29
37904;BME280;23738;50.422;18.758;2023-03-31T21:19:08;96774.86;;;7.81;76.54
37904;BME280;23738;50.422;18.758;2023-03-31T21:21:38;96769.23;;;7.83;76.45
37904;BME280;23738;50.422;18.758;2023-03-31T21:24:09;96768.86;;;7.85;76.38
37904;BME280;23738;50.422;18.758;2023-03-31T21:26:39;96771.41;;;7.86;76.44
37904;BME280;23738;50.422;18.758;2023-03-31T21:29:09;96777.34;;;7.86;76.65
37904;BME280;23738;50.422;18.758;2023-03-31T21:31:38;96772.02;;;7.83;76.65
37904;BME280;23738;50.422;18.758;2023-03-31T21:34:08;96768.85;;;7.80;76.56
37904;BME280;23738;50.422;18.758;2023-03-31T21:36:37;96765.90;;;7.78;76.59
37904;BME280;23738;50.422;18.758;2023-03-31T21:39:07;96769.20;;;7.82;76.70
37904;BME280;23738;50.422;18.758;2023-03-31T21:41:38;96765.60;;;7.83;76.88
37904;BME280;23738;50.422;18.758;2023-03-31T21:44:08;96768.88;;;7.83;77.11
37904;BME280;23738;50.422;18.758;2023-03-31T21:46:38;96775.90;;;7.82;77.04
37904;BME280;23738;50.422;18.758;2023-03-31T21:49:08;96782.51;;;7.78;77.16
37904;BME280;23738;50.422;18.758;2023-03-31T21:51:37;96781.36;;;7.76;76.98
37904;BME280;23738;50.422;18.758;2023-03-31T21:54:07;96783.96;;;7.75;77.23
37904;BME280;23738;50.422;18.758;2023-03-31T21:56:36;96780.13;;;7.77;77.24
37904;BME280;23738;50.422;18.758;2023-03-31T21:59:07;96783.39;;;7.79;77.19
37904;BME280;23738;50.422;18.758;2023-03-31T22:01:36;96779.89;;;7.77;77.26
37904;BME280;23738;50.422;18.758;2023-03-31T22:04:05;96786.52;;;7.75;77.53
37904;BME280;23738;50.422;18.758;2023-03-31T22:06:36;96785.32;;;7.67;77.44
37904;BME280;23738;50.422;18.758;2023-03-31T22:09:06;96787.77;;;7.66;77.47
37904;BME280;23738;50.422;18.758;2023-03-31T22:11:35;96789.45;;;7.65;77.29
37904;BME280;23738;50.422;18.758;2023-03-31T22:14:05;96792.34;;;7.63;77.48
37904;BME280;23738;50.422;18.758;2023-03-31T22:16:34;96791.14;;;7.62;77.51
37904;BME280;23738;50.422;18.758;2023-03-31T22:19:04;96787.86;;;7.59;77.41
37904;BME280;23738;50.422;18.758;2023-03-31T22:21:34;96785.34;;;7.54;77.57
37904;BME280;23738;50.422;18.758;2023-03-31T22:24:03;96787.38;;;7.49;77.64
37904;BME280;23738;50.422;18.758;2023-03-31T22:26:33;96791.65;;;7.48;77.81
37904;BME280;23738;50.422;18.758;2023-03-31T22:29:02;96798.91;;;7.50;77.72
37904;BME280;23738;50.422;18.758;2023-03-31T22:31:32;96804.30;;;7.49;77.73
37904;BME280;23738;50.422;18.758;2023-03-31T22:34:01;96803.04;;;7.45;77.64
37904;BME280;23738;50.422;18.758;2023-03-31T22:36:30;96806.88;;;7.44;77.84
37904;BME280;23738;50.422;18.758;2023-03-31T22:39:00;96805.06;;;7.39;77.62
37904;BME280;23738;50.422;18.758;2023-03-31T22:41:29;96802.92;;;7.31;77.82
37904;BME280;23738;50.422;18.758;2023-03-31T22:43:58;96800.94;;;7.27;77.71
37904;BME280;23738;50.422;18.758;2023-03-31T22:46:28;96798.81;;;7.24;77.73
37904;BME280;23738;50.422;18.758;2023-03-31T22:48:57;96794.91;;;7.22;77.46
37904;BME280;23738;50.422;18.758;2023-03-31T22:51:26;96799.59;;;7.18;77.43
37904;BME280;23738;50.422;18.758;2023-03-31T22:53:57;96807.89;;;7.18;77.44
37904;BME280;23738;50.422;18.758;2023-03-31T22:56:26;96807.61;;;7.13;77.68
37904;BME280;23738;50.422;18.758;2023-03-31T22:58:56;96801.48;;;7.10;77.54
37904;BME280;23738;50.422;18.758;2023-03-31T23:01:26;96796.73;;;7.07;77.63
37904;BME280;23738;50.422;18.758;2023-03-31T23:03:55;96796.21;;;7.03;77.46
37904;BME280;23738;50.422;18.758;2023-03-31T23:06:24;96794.63;;;7.03;77.45
37904;BME280;23738;50.422;18.758;2023-03-31T23:08:54;96804.64;;;7.04;77.67
37904;BME280;23738;50.422;18.758;2023-03-31T23:11:24;96801.35;;;7.06;77.86
37904;BME280;23738;50.422;18.758;2023-03-31T23:13:54;96794.31;;;7.11;78.03
37904;BME280;23738;50.422;18.758;2023-03-31T23:16:24;96794.23;;;7.14;78.24
37904;BME280;23738;50.422;18.758;2023-03-31T23:18:55;96791.01;;;7.13;77.92
37904;BME280;23738;50.422;18.758;2023-03-31T23:21:26;96786.91;;;7.09;78.29
37904;BME280;23738;50.422;18.758;2023-03-31T23:23:57;96785.78;;;7.09;78.17
37904;BME280;23738;50.422;18.758;2023-03-31T23:26:29;96781.66;;;7.09;78.26
37904;BME280;23738;50.422;18.758;2023-03-31T23:28:59;96776.96;;;7.16;78.59
37904;BME280;23738;50.422;18.758;2023-03-31T23:31:30;96766.05;;;7.15;78.43
37904;BME280;23738;50.422;18.758;2023-03-31T23:34:01;96774.57;;;7.19;78.52
37904;BME280;23738;50.422;18.758;2023-03-31T23:36:30;96769.80;;;7.19;78.33
37904;BME280;23738;50.422;18.758;2023-03-31T23:38:59;96768.36;;;7.19;78.44
37904;BME280;23738;50.422;18.758;2023-03-31T23:41:29;96772.72;;;7.16;78.49
37904;BME280;23738;50.422;18.758;2023-03-31T23:43:59;96761.74;;;7.15;78.37
37904;BME280;23738;50.422;18.758;2023-03-31T23:46:28;96761.86;;;7.11;78.18
37904;BME280;23738;50.422;18.758;2023-03-31T23:48:58;96758.27;;;7.09;78.34
37904;BME280;23738;50.422;18.758;2023-03-31T23:51:28;96753.67;;;7.04;77.96
37904;BME280;23738;50.422;18.758;2023-03-31T23:53:57;96759.34;;;7.00;78.14
37904;BME280;23738;50.422;18.758;2023-03-31T23:56:27;96753.69;;;6.96;78.13
37904;BME280;23738;50.422;18.758;2023-03-31T23:58:57;96753.89;;;6.88;77.94
